Tonic Sea — D5AZ8 — position and weather

sailwx.info

Track history (hours):
 
Tides and Currents Weather Stations Pressure Air Temp Water Temp Dewpoint Dewpoint Depression Visibility Wind Speed Wind Dir Waves Ship Positions

Tonic Sea

Last reported at 2016-Sep-26 15:15 UTC. Time now 2016-Sep-26 22:32 UTC.
Position N 49°52' W 002°43'.

Length 229 m; draft 7.3 m.

Type: Cargo ship. MMSI: 636015479.

Date/timePositionNaut miles runAvg speedWind from/ knotsBaromVisibWave heightAir tempDewpointWater temp
2016-Sep-26 15:15N 49°52' W 002°43'2112.1
2016-Sep-26 13:33N 49°43' W 003°12'11810.7
2016-Sep-26 02:30N 48°39' W 005°44'  
2016-Sep-23 19:33N 39°37' W 009°50'2210.8
2016-Sep-23 17:33N 39°16' W 009°50'1110.8
2016-Sep-23 16:33N 39°05' W 009°50'1110.7
2016-Sep-23 15:33N 38°54' W 009°51'2210.8
2016-Sep-23 13:33N 38°33' W 009°49'4110.2
2016-Sep-23 09:33N 37°53' W 009°37'5110.3
2016-Sep-23 04:33N 37°03' W 009°22'11 9.6
2016-Sep-23 03:25N 36°53' W 009°18'9 9.9
2016-Sep-23 02:33N 36°46' W 009°11'11 9.8
2016-Sep-23 01:29N 36°42' W 008°59'910.3
2016-Sep-23 00:33N 36°39' W 008°48'1110.7
2016-Sep-22 23:33N 36°35' W 008°35'269 7.1
2016-Sep-21 09:33N 36°21' W 003°02'7 5.6
2016-Sep-21 08:19N 36°22' W 002°53'24 8.6
2016-Sep-21 05:33N 36°25' W 002°24'9 4.6
2016-Sep-21 03:32N 36°26' W 002°12'4 4.6
2016-Sep-21 02:33N 36°27' W 002°07'49 5.4
2016-Sep-20 17:32N 36°35' W 001°06'  
2016-Sep-17 07:21N 36°56' E 012°34'97 7.0
2016-Sep-16 17:33N 36°28' E 014°30'18 8.3
2016-Sep-16 15:25N 36°23' E 014°51'  
Track history (hours):
 
Tides and Currents Weather Stations Pressure Air Temp Water Temp Dewpoint Dewpoint Depression Visibility Wind Speed Wind Dir Waves Ship Positions

Tonic Sea

Last reported at 2016-Sep-26 15:15 UTC. Time now 2016-Sep-26 22:32 UTC.
Position N 49°52' W 002°43'.

Length 229 m; draft 7.3 m.

Type: Cargo ship. MMSI: 636015479.

Date/timePositionNaut miles runAvg speedWind from/ knotsBaromVisibWave heightAir tempDewpointWater temp
2016-Sep-26 15:15N 49°52' W 002°43'2112.1
2016-Sep-26 13:33N 49°43' W 003°12'11810.7
2016-Sep-26 02:30N 48°39' W 005°44'  
2016-Sep-23 19:33N 39°37' W 009°50'2210.8
2016-Sep-23 17:33N 39°16' W 009°50'1110.8
2016-Sep-23 16:33N 39°05' W 009°50'1110.7
2016-Sep-23 15:33N 38°54' W 009°51'2210.8
2016-Sep-23 13:33N 38°33' W 009°49'4110.2
2016-Sep-23 09:33N 37°53' W 009°37'5110.3
2016-Sep-23 04:33N 37°03' W 009°22'11 9.6
2016-Sep-23 03:25N 36°53' W 009°18'9 9.9
2016-Sep-23 02:33N 36°46' W 009°11'11 9.8
2016-Sep-23 01:29N 36°42' W 008°59'910.3
2016-Sep-23 00:33N 36°39' W 008°48'1110.7
2016-Sep-22 23:33N 36°35' W 008°35'269 7.1
2016-Sep-21 09:33N 36°21' W 003°02'7 5.6
2016-Sep-21 08:19N 36°22' W 002°53'24 8.6
2016-Sep-21 05:33N 36°25' W 002°24'9 4.6
2016-Sep-21 03:32N 36°26' W 002°12'4 4.6
2016-Sep-21 02:33N 36°27' W 002°07'49 5.4
2016-Sep-20 17:32N 36°35' W 001°06'  
2016-Sep-17 07:21N 36°56' E 012°34'97 7.0
2016-Sep-16 17:33N 36°28' E 014°30'18 8.3
2016-Sep-16 15:25N 36°23' E 014°51'  

Dump ship's entire track history